sensor_id;sensor_type;location;lat;lon;timestamp;temperature;humidity
40676;DHT22;26359;48.750;9.314;2022-09-29T00:00:12;9.00;99.90
40676;DHT22;26359;48.750;9.314;2022-09-29T00:02:37;9.00;99.90
40676;DHT22;26359;48.750;9.314;2022-09-29T00:05:04;9.00;99.90
40676;DHT22;26359;48.750;9.314;2022-09-29T00:07:29;9.00;99.90
40676;DHT22;26359;48.750;9.314;2022-09-29T00:09:57;9.00;99.90
40676;DHT22;26359;48.750;9.314;2022-09-29T00:12:22;9.00;99.90
40676;DHT22;26359;48.750;9.314;2022-09-29T00:14:48;9.00;99.90
40676;DHT22;26359;48.750;9.314;2022-09-29T00:17:14;9.00;99.90
40676;DHT22;26359;48.750;9.314;2022-09-29T00:19:40;9.00;99.90
40676;DHT22;26359;48.750;9.314;2022-09-29T00:22:05;9.00;99.90
40676;DHT22;26359;48.750;9.314;2022-09-29T00:24:31;9.10;99.90
40676;DHT22;26359;48.750;9.314;2022-09-29T00:26:56;9.10;99.90
40676;DHT22;26359;48.750;9.314;2022-09-29T00:29:22;9.10;99.90
40676;DHT22;26359;48.750;9.314;2022-09-29T00:31:47;9.20;99.90
40676;DHT22;26359;48.750;9.314;2022-09-29T00:34:13;9.20;99.90
40676;DHT22;26359;48.750;9.314;2022-09-29T00:36:39;9.10;99.90
40676;DHT22;26359;48.750;9.314;2022-09-29T00:39:05;9.10;99.90
40676;DHT22;26359;48.750;9.314;2022-09-29T00:41:33;9.10;99.90
40676;DHT22;26359;48.750;9.314;2022-09-29T00:47:00;9.00;99.90
40676;DHT22;26359;48.750;9.314;2022-09-29T00:49:33;9.00;99.90
40676;DHT22;26359;48.750;9.314;2022-09-29T00:52:01;9.00;99.90
40676;DHT22;26359;48.750;9.314;2022-09-29T00:54:32;9.00;99.90
40676;DHT22;26359;48.750;9.314;2022-09-29T00:57:01;9.00;99.90
40676;DHT22;26359;48.750;9.314;2022-09-29T00:59:34;9.10;99.90
40676;DHT22;26359;48.750;9.314;2022-09-29T01:02:02;9.10;99.90
40676;DHT22;26359;48.750;9.314;2022-09-29T01:04:29;9.10;99.90
40676;DHT22;26359;48.750;9.314;2022-09-29T01:06:56;9.10;99.90
40676;DHT22;26359;48.750;9.314;2022-09-29T01:09:31;9.10;99.90
40676;DHT22;26359;48.750;9.314;2022-09-29T01:11:58;9.00;99.90
40676;DHT22;26359;48.750;9.314;2022-09-29T01:14:26;9.10;99.90
40676;DHT22;26359;48.750;9.314;2022-09-29T01:16:52;9.10;99.90
40676;DHT22;26359;48.750;9.314;2022-09-29T01:30:15;9.00;99.90
40676;DHT22;26359;48.750;9.314;2022-09-29T01:32:50;9.00;99.90
40676;DHT22;26359;48.750;9.314;2022-09-29T01:35:43;9.00;99.90
40676;DHT22;26359;48.750;9.314;2022-09-29T01:38:31;9.10;99.90
40676;DHT22;26359;48.750;9.314;2022-09-29T01:41:12;9.10;99.90
40676;DHT22;26359;48.750;9.314;2022-09-29T01:43:55;9.20;99.90
40676;DHT22;26359;48.750;9.314;2022-09-29T01:46:24;9.20;99.90
40676;DHT22;26359;48.750;9.314;2022-09-29T01:48:54;9.20;99.90
40676;DHT22;26359;48.750;9.314;2022-09-29T01:51:27;9.20;99.90
40676;DHT22;26359;48.750;9.314;2022-09-29T01:53:56;9.20;99.90
40676;DHT22;26359;48.750;9.314;2022-09-29T01:56:34;9.20;99.90
40676;DHT22;26359;48.750;9.314;2022-09-29T01:59:13;9.20;99.90
40676;DHT22;26359;48.750;9.314;2022-09-29T02:01:42;9.20;99.90
40676;DHT22;26359;48.750;9.314;2022-09-29T02:04:20;9.10;99.90
40676;DHT22;26359;48.750;9.314;2022-09-29T02:06:54;9.00;99.90
40676;DHT22;26359;48.750;9.314;2022-09-29T02:09:26;8.90;99.90
40676;DHT22;26359;48.750;9.314;2022-09-29T02:11:53;8.80;99.90
40676;DHT22;26359;48.750;9.314;2022-09-29T02:14:31;8.70;99.90
40676;DHT22;26359;48.750;9.314;2022-09-29T02:17:12;8.80;99.90
40676;DHT22;26359;48.750;9.314;2022-09-29T02:19:45;8.80;99.90
40676;DHT22;26359;48.750;9.314;2022-09-29T02:22:11;8.80;99.90
40676;DHT22;26359;48.750;9.314;2022-09-29T02:24:36;8.90;99.90
40676;DHT22;26359;48.750;9.314;2022-09-29T02:27:03;8.90;99.90
40676;DHT22;26359;48.750;9.314;2022-09-29T02:29:29;8.90;99.90
40676;DHT22;26359;48.750;9.314;2022-09-29T02:31:56;8.80;99.90
40676;DHT22;26359;48.750;9.314;2022-09-29T02:34:26;8.90;99.90
40676;DHT22;26359;48.750;9.314;2022-09-29T02:42:17;8.80;99.90
40676;DHT22;26359;48.750;9.314;2022-09-29T02:44:52;8.90;99.90
40676;DHT22;26359;48.750;9.314;2022-09-29T02:53:26;9.00;99.90
40676;DHT22;26359;48.750;9.314;2022-09-29T02:58:49;9.10;99.90
40676;DHT22;26359;48.750;9.314;2022-09-29T03:01:15;9.10;99.90
40676;DHT22;26359;48.750;9.314;2022-09-29T03:03:42;9.20;99.90
40676;DHT22;26359;48.750;9.314;2022-09-29T03:06:08;9.10;99.90
40676;DHT22;26359;48.750;9.314;2022-09-29T03:08:34;9.10;99.90
40676;DHT22;26359;48.750;9.314;2022-09-29T03:11:00;9.10;99.90
40676;DHT22;26359;48.750;9.314;2022-09-29T03:13:26;9.00;99.90
40676;DHT22;26359;48.750;9.314;2022-09-29T03:15:51;9.00;99.90
40676;DHT22;26359;48.750;9.314;2022-09-29T03:18:17;9.00;99.90
40676;DHT22;26359;48.750;9.314;2022-09-29T03:20:42;9.00;99.90
40676;DHT22;26359;48.750;9.314;2022-09-29T03:23:08;9.00;99.90
40676;DHT22;26359;48.750;9.314;2022-09-29T03:25:33;9.00;99.90
40676;DHT22;26359;48.750;9.314;2022-09-29T03:27:59;9.00;99.90
40676;DHT22;26359;48.750;9.314;2022-09-29T03:30:24;8.90;99.90
40676;DHT22;26359;48.750;9.314;2022-09-29T03:32:50;8.90;99.90
40676;DHT22;26359;48.750;9.314;2022-09-29T03:35:16;8.80;99.90
40676;DHT22;26359;48.750;9.314;2022-09-29T03:37:42;8.90;99.90
40676;DHT22;26359;48.750;9.314;2022-09-29T03:40:08;8.80;99.90
40676;DHT22;26359;48.750;9.314;2022-09-29T03:42:36;8.70;99.90
40676;DHT22;26359;48.750;9.314;2022-09-29T03:45:02;8.60;99.90
40676;DHT22;26359;48.750;9.314;2022-09-29T03:47:27;8.50;99.90
40676;DHT22;26359;48.750;9.314;2022-09-29T03:49:56;8.50;99.90
40676;DHT22;26359;48.750;9.314;2022-09-29T03:52:21;8.40;99.90
40676;DHT22;26359;48.750;9.314;2022-09-29T03:54:47;8.40;99.90
40676;DHT22;26359;48.750;9.314;2022-09-29T03:57:12;8.40;99.90
40676;DHT22;26359;48.750;9.314;2022-09-29T03:59:38;8.30;99.90
40676;DHT22;26359;48.750;9.314;2022-09-29T04:02:03;8.30;99.90
40676;DHT22;26359;48.750;9.314;2022-09-29T04:04:29;8.30;99.90
40676;DHT22;26359;48.750;9.314;2022-09-29T04:06:54;8.30;99.90
40676;DHT22;26359;48.750;9.314;2022-09-29T04:09:20;8.30;99.90
40676;DHT22;26359;48.750;9.314;2022-09-29T04:11:45;8.30;99.90
40676;DHT22;26359;48.750;9.314;2022-09-29T04:14:11;8.30;99.90
40676;DHT22;26359;48.750;9.314;2022-09-29T04:16:36;8.30;99.90
40676;DHT22;26359;48.750;9.314;2022-09-29T04:19:02;8.40;99.90
40676;DHT22;26359;48.750;9.314;2022-09-29T04:21:27;8.30;99.90
40676;DHT22;26359;48.750;9.314;2022-09-29T04:23:53;8.30;99.90
40676;DHT22;26359;48.750;9.314;2022-09-29T04:26:19;8.30;99.90
40676;DHT22;26359;48.750;9.314;2022-09-29T04:28:47;8.30;99.90
40676;DHT22;26359;48.750;9.314;2022-09-29T04:31:13;8.30;99.90
40676;DHT22;26359;48.750;9.314;2022-09-29T04:33:38;8.30;99.90
40676;DHT22;26359;48.750;9.314;2022-09-29T04:36:04;8.10;99.90
40676;DHT22;26359;48.750;9.314;2022-09-29T04:38:30;8.10;99.90
40676;DHT22;26359;48.750;9.314;2022-09-29T04:40:58;8.20;99.90
40676;DHT22;26359;48.750;9.314;2022-09-29T04:43:24;8.10;99.90
40676;DHT22;26359;48.750;9.314;2022-09-29T04:45:50;8.10;99.90
40676;DHT22;26359;48.750;9.314;2022-09-29T04:48:15;8.10;99.90
40676;DHT22;26359;48.750;9.314;2022-09-29T04:50:41;8.10;99.90
40676;DHT22;26359;48.750;9.314;2022-09-29T04:53:08;8.10;99.90
40676;DHT22;26359;48.750;9.314;2022-09-29T04:55:36;8.10;99.90
40676;DHT22;26359;48.750;9.314;2022-09-29T04:58:01;8.10;99.90
40676;DHT22;26359;48.750;9.314;2022-09-29T05:00:30;8.10;99.90
40676;DHT22;26359;48.750;9.314;2022-09-29T05:02:57;8.00;99.90
40676;DHT22;26359;48.750;9.314;2022-09-29T05:05:22;8.00;99.90
40676;DHT22;26359;48.750;9.314;2022-09-29T05:07:48;7.90;99.90
40676;DHT22;26359;48.750;9.314;2022-09-29T05:10:13;7.90;99.90
40676;DHT22;26359;48.750;9.314;2022-09-29T05:12:39;7.90;99.90
40676;DHT22;26359;48.750;9.314;2022-09-29T05:15:05;8.00;99.90
40676;DHT22;26359;48.750;9.314;2022-09-29T05:17:31;7.90;99.90
40676;DHT22;26359;48.750;9.314;2022-09-29T05:19:56;8.00;99.90
40676;DHT22;26359;48.750;9.314;2022-09-29T05:22:22;8.00;99.90
40676;DHT22;26359;48.750;9.314;2022-09-29T05:24:50;7.80;99.90
40676;DHT22;26359;48.750;9.314;2022-09-29T05:27:15;7.70;99.90
40676;DHT22;26359;48.750;9.314;2022-09-29T05:29:41;7.70;99.90
40676;DHT22;26359;48.750;9.314;2022-09-29T05:32:06;7.70;99.90
40676;DHT22;26359;48.750;9.314;2022-09-29T05:34:32;7.80;99.90
40676;DHT22;26359;48.750;9.314;2022-09-29T05:36:57;7.80;99.90
40676;DHT22;26359;48.750;9.314;2022-09-29T05:39:23;7.90;99.90
40676;DHT22;26359;48.750;9.314;2022-09-29T05:41:49;7.90;99.90
40676;DHT22;26359;48.750;9.314;2022-09-29T05:44:14;7.90;99.90
40676;DHT22;26359;48.750;9.314;2022-09-29T05:46:41;7.90;99.90
40676;DHT22;26359;48.750;9.314;2022-09-29T05:49:06;8.00;99.90
40676;DHT22;26359;48.750;9.314;2022-09-29T05:51:32;8.00;99.90
40676;DHT22;26359;48.750;9.314;2022-09-29T05:53:57;8.10;99.90
40676;DHT22;26359;48.750;9.314;2022-09-29T05:56:25;8.10;99.90
40676;DHT22;26359;48.750;9.314;2022-09-29T05:58:51;8.10;99.90
40676;DHT22;26359;48.750;9.314;2022-09-29T06:01:19;8.00;99.90
40676;DHT22;26359;48.750;9.314;2022-09-29T06:03:45;7.90;99.90
40676;DHT22;26359;48.750;9.314;2022-09-29T06:08:38;8.00;99.90
40676;DHT22;26359;48.750;9.314;2022-09-29T06:11:10;8.10;99.90
40676;DHT22;26359;48.750;9.314;2022-09-29T06:13:37;8.10;99.90
40676;DHT22;26359;48.750;9.314;2022-09-29T06:16:03;8.20;99.90
40676;DHT22;26359;48.750;9.314;2022-09-29T06:18:29;8.30;99.90
40676;DHT22;26359;48.750;9.314;2022-09-29T06:21:00;8.30;99.90
40676;DHT22;26359;48.750;9.314;2022-09-29T06:23:25;8.10;99.90
40676;DHT22;26359;48.750;9.314;2022-09-29T06:25:56;8.00;99.90
40676;DHT22;26359;48.750;9.314;2022-09-29T06:28:21;8.00;99.90
40676;DHT22;26359;48.750;9.314;2022-09-29T06:30:47;8.00;99.90
40676;DHT22;26359;48.750;9.314;2022-09-29T06:33:12;8.00;99.90
40676;DHT22;26359;48.750;9.314;2022-09-29T06:35:38;8.10;99.90
40676;DHT22;26359;48.750;9.314;2022-09-29T06:38:22;8.20;99.90
40676;DHT22;26359;48.750;9.314;2022-09-29T06:40:47;8.30;99.90
40676;DHT22;26359;48.750;9.314;2022-09-29T06:43:13;8.40;99.90
40676;DHT22;26359;48.750;9.314;2022-09-29T06:45:39;8.40;99.90
40676;DHT22;26359;48.750;9.314;2022-09-29T06:48:04;8.40;99.90
40676;DHT22;26359;48.750;9.314;2022-09-29T06:50:30;8.40;99.90
40676;DHT22;26359;48.750;9.314;2022-09-29T06:52:55;8.20;99.90
40676;DHT22;26359;48.750;9.314;2022-09-29T06:55:21;8.20;99.90
40676;DHT22;26359;48.750;9.314;2022-09-29T06:57:46;8.10;99.90
40676;DHT22;26359;48.750;9.314;2022-09-29T07:00:12;8.10;99.90
40676;DHT22;26359;48.750;9.314;2022-09-29T07:02:38;8.10;99.90
40676;DHT22;26359;48.750;9.314;2022-09-29T07:05:03;8.10;99.90
40676;DHT22;26359;48.750;9.314;2022-09-29T07:07:29;8.20;99.90
40676;DHT22;26359;48.750;9.314;2022-09-29T07:09:55;8.30;99.90
40676;DHT22;26359;48.750;9.314;2022-09-29T07:12:20;8.30;99.90
40676;DHT22;26359;48.750;9.314;2022-09-29T07:14:46;8.40;99.90
40676;DHT22;26359;48.750;9.314;2022-09-29T07:17:11;8.50;99.90
40676;DHT22;26359;48.750;9.314;2022-09-29T07:19:37;8.60;99.90
40676;DHT22;26359;48.750;9.314;2022-09-29T07:22:03;8.60;99.90
40676;DHT22;26359;48.750;9.314;2022-09-29T07:24:30;8.70;99.90
40676;DHT22;26359;48.750;9.314;2022-09-29T07:26:55;8.70;99.90
40676;DHT22;26359;48.750;9.314;2022-09-29T07:29:21;8.80;99.90
40676;DHT22;26359;48.750;9.314;2022-09-29T07:31:47;8.80;99.90
40676;DHT22;26359;48.750;9.314;2022-09-29T07:34:16;8.80;99.90
40676;DHT22;26359;48.750;9.314;2022-09-29T07:36:41;8.80;99.90
40676;DHT22;26359;48.750;9.314;2022-09-29T07:39:07;8.80;99.90
40676;DHT22;26359;48.750;9.314;2022-09-29T07:41:32;8.80;99.90
40676;DHT22;26359;48.750;9.314;2022-09-29T07:43:58;8.80;99.90
40676;DHT22;26359;48.750;9.314;2022-09-29T07:46:23;8.80;99.90
40676;DHT22;26359;48.750;9.314;2022-09-29T07:48:49;8.80;99.90
40676;DHT22;26359;48.750;9.314;2022-09-29T07:51:18;8.80;99.90
40676;DHT22;26359;48.750;9.314;2022-09-29T07:53:45;8.80;99.90
40676;DHT22;26359;48.750;9.314;2022-09-29T07:56:18;9.00;99.90
40676;DHT22;26359;48.750;9.314;2022-09-29T07:58:45;9.10;99.90
40676;DHT22;26359;48.750;9.314;2022-09-29T08:01:12;9.10;99.90
40676;DHT22;26359;48.750;9.314;2022-09-29T08:03:44;9.20;99.90
40676;DHT22;26359;48.750;9.314;2022-09-29T08:06:13;9.30;99.90
40676;DHT22;26359;48.750;9.314;2022-09-29T08:08:40;9.30;99.90
40676;DHT22;26359;48.750;9.314;2022-09-29T08:11:11;9.40;99.90
40676;DHT22;26359;48.750;9.314;2022-09-29T08:13:37;9.30;99.90
40676;DHT22;26359;48.750;9.314;2022-09-29T08:16:06;9.30;99.90
40676;DHT22;26359;48.750;9.314;2022-09-29T08:18:32;9.30;99.90
40676;DHT22;26359;48.750;9.314;2022-09-29T08:20:58;9.30;99.90
40676;DHT22;26359;48.750;9.314;2022-09-29T08:23:23;9.40;99.90
40676;DHT22;26359;48.750;9.314;2022-09-29T08:25:57;9.50;99.90
40676;DHT22;26359;48.750;9.314;2022-09-29T08:28:23;9.50;99.90
40676;DHT22;26359;48.750;9.314;2022-09-29T08:30:48;9.50;99.90
40676;DHT22;26359;48.750;9.314;2022-09-29T08:33:14;9.50;99.90
40676;DHT22;26359;48.750;9.314;2022-09-29T08:35:40;9.60;99.90
40676;DHT22;26359;48.750;9.314;2022-09-29T08:38:06;9.60;99.90
40676;DHT22;26359;48.750;9.314;2022-09-29T08:40:32;9.70;99.90
40676;DHT22;26359;48.750;9.314;2022-09-29T08:43:09;9.80;99.90
40676;DHT22;26359;48.750;9.314;2022-09-29T08:45:41;9.90;99.90
40676;DHT22;26359;48.750;9.314;2022-09-29T08:48:16;9.90;99.90
40676;DHT22;26359;48.750;9.314;2022-09-29T08:50:52;10.00;99.90
40676;DHT22;26359;48.750;9.314;2022-09-29T08:53:21;10.10;99.90
40676;DHT22;26359;48.750;9.314;2022-09-29T08:56:00;10.10;99.90
40676;DHT22;26359;48.750;9.314;2022-09-29T08:58:27;10.20;99.90
40676;DHT22;26359;48.750;9.314;2022-09-29T09:06:25;10.40;99.90
40676;DHT22;26359;48.750;9.314;2022-09-29T09:17:15;10.80;99.90
40676;DHT22;26359;48.750;9.314;2022-09-29T09:22:55;11.00;99.90
40676;DHT22;26359;48.750;9.314;2022-09-29T09:25:33;11.10;99.90
40676;DHT22;26359;48.750;9.314;2022-09-29T09:31:09;11.20;99.90
40676;DHT22;26359;48.750;9.314;2022-09-29T09:39:02;11.10;99.90
40676;DHT22;26359;48.750;9.314;2022-09-29T09:41:29;11.20;99.90
40676;DHT22;26359;48.750;9.314;2022-09-29T09:44:04;11.20;99.90
40676;DHT22;26359;48.750;9.314;2022-09-29T09:46:44;11.10;99.90
40676;DHT22;26359;48.750;9.314;2022-09-29T09:49:29;11.10;99.90
40676;DHT22;26359;48.750;9.314;2022-09-29T09:54:52;11.30;99.90
40676;DHT22;26359;48.750;9.314;2022-09-29T10:00:00;11.40;99.90
40676;DHT22;26359;48.750;9.314;2022-09-29T10:02:29;11.40;99.90
40676;DHT22;26359;48.750;9.314;2022-09-29T10:04:55;11.50;99.90
40676;DHT22;26359;48.750;9.314;2022-09-29T10:07:24;11.60;99.90
40676;DHT22;26359;48.750;9.314;2022-09-29T10:09:50;11.60;99.90
40676;DHT22;26359;48.750;9.314;2022-09-29T10:12:23;11.80;99.90
40676;DHT22;26359;48.750;9.314;2022-09-29T10:15:19;11.90;99.90
40676;DHT22;26359;48.750;9.314;2022-09-29T10:17:55;12.00;99.90
40676;DHT22;26359;48.750;9.314;2022-09-29T10:20:35;12.10;99.90
40676;DHT22;26359;48.750;9.314;2022-09-29T10:23:19;12.10;99.90
40676;DHT22;26359;48.750;9.314;2022-09-29T10:28:38;12.30;99.90
40676;DHT22;26359;48.750;9.314;2022-09-29T10:31:26;12.30;99.90
40676;DHT22;26359;48.750;9.314;2022-09-29T10:33:57;12.40;99.90
40676;DHT22;26359;48.750;9.314;2022-09-29T10:36:31;12.50;99.90
40676;DHT22;26359;48.750;9.314;2022-09-29T10:38:58;12.50;99.90
40676;DHT22;26359;48.750;9.314;2022-09-29T10:41:23;12.50;99.90
40676;DHT22;26359;48.750;9.314;2022-09-29T10:43:50;12.60;99.90
40676;DHT22;26359;48.750;9.314;2022-09-29T10:51:34;12.60;99.90
40676;DHT22;26359;48.750;9.314;2022-09-29T10:54:09;12.60;99.90
40676;DHT22;26359;48.750;9.314;2022-09-29T10:56:36;12.70;99.90
40676;DHT22;26359;48.750;9.314;2022-09-29T10:59:02;12.70;99.90
40676;DHT22;26359;48.750;9.314;2022-09-29T11:01:30;12.70;99.90
40676;DHT22;26359;48.750;9.314;2022-09-29T11:04:00;12.70;99.90
40676;DHT22;26359;48.750;9.314;2022-09-29T11:06:39;12.70;99.90
40676;DHT22;26359;48.750;9.314;2022-09-29T11:09:27;12.60;99.90
40676;DHT22;26359;48.750;9.314;2022-09-29T11:11:56;12.50;99.90
40676;DHT22;26359;48.750;9.314;2022-09-29T11:14:51;12.60;99.90
40676;DHT22;26359;48.750;9.314;2022-09-29T11:17:36;12.70;99.90
40676;DHT22;26359;48.750;9.314;2022-09-29T11:20:04;12.90;99.90
40676;DHT22;26359;48.750;9.314;2022-09-29T11:22:40;13.10;99.90
40676;DHT22;26359;48.750;9.314;2022-09-29T11:25:21;13.40;99.90
40676;DHT22;26359;48.750;9.314;2022-09-29T11:42:09;13.90;99.90
40676;DHT22;26359;48.750;9.314;2022-09-29T11:50:40;14.30;99.90
40676;DHT22;26359;48.750;9.314;2022-09-29T12:09:42;14.20;99.90
40676;DHT22;26359;48.750;9.314;2022-09-29T12:12:34;14.20;99.90
40676;DHT22;26359;48.750;9.314;2022-09-29T12:15:28;14.30;99.90
40676;DHT22;26359;48.750;9.314;2022-09-29T12:18:01;14.50;99.90
40676;DHT22;26359;48.750;9.314;2022-09-29T12:20:34;14.60;99.90
40676;DHT22;26359;48.750;9.314;2022-09-29T12:23:03;14.50;99.90
40676;DHT22;26359;48.750;9.314;2022-09-29T12:25:36;14.50;99.90
40676;DHT22;26359;48.750;9.314;2022-09-29T12:28:12;14.50;99.90
40676;DHT22;26359;48.750;9.314;2022-09-29T12:30:48;14.70;99.90
40676;DHT22;26359;48.750;9.314;2022-09-29T12:33:26;14.80;99.90
40676;DHT22;26359;48.750;9.314;2022-09-29T12:39:01;14.90;99.90
40676;DHT22;26359;48.750;9.314;2022-09-29T12:41:30;15.00;99.90
40676;DHT22;26359;48.750;9.314;2022-09-29T12:44:19;15.10;99.90
40676;DHT22;26359;48.750;9.314;2022-09-29T12:47:09;15.40;99.90
40676;DHT22;26359;48.750;9.314;2022-09-29T12:52:30;15.90;99.90
40676;DHT22;26359;48.750;9.314;2022-09-29T12:55:02;16.00;99.90
40676;DHT22;26359;48.750;9.314;2022-09-29T12:57:38;15.90;99.90
40676;DHT22;26359;48.750;9.314;2022-09-29T13:00:09;15.70;99.90
40676;DHT22;26359;48.750;9.314;2022-09-29T13:10:47;15.80;99.90
40676;DHT22;26359;48.750;9.314;2022-09-29T13:13:39;15.80;99.90
40676;DHT22;26359;48.750;9.314;2022-09-29T13:16:44;15.80;99.90
40676;DHT22;26359;48.750;9.314;2022-09-29T13:27:31;15.40;99.90
40676;DHT22;26359;48.750;9.314;2022-09-29T13:30:03;15.40;99.90
40676;DHT22;26359;48.750;9.314;2022-09-29T13:32:30;15.40;99.90
40676;DHT22;26359;48.750;9.314;2022-09-29T13:34:59;15.20;99.90
40676;DHT22;26359;48.750;9.314;2022-09-29T13:37:49;15.10;99.90
40676;DHT22;26359;48.750;9.314;2022-09-29T13:40:22;14.90;99.90
40676;DHT22;26359;48.750;9.314;2022-09-29T13:42:52;14.80;99.90
40676;DHT22;26359;48.750;9.314;2022-09-29T13:50:44;14.70;99.90
40676;DHT22;26359;48.750;9.314;2022-09-29T13:55:56;14.80;99.90
40676;DHT22;26359;48.750;9.314;2022-09-29T13:58:36;14.70;99.90
40676;DHT22;26359;48.750;9.314;2022-09-29T14:01:05;14.80;99.90
40676;DHT22;26359;48.750;9.314;2022-09-29T14:03:43;14.70;99.90
40676;DHT22;26359;48.750;9.314;2022-09-29T14:06:17;14.70;99.90
40676;DHT22;26359;48.750;9.314;2022-09-29T14:09:12;14.70;99.90
40676;DHT22;26359;48.750;9.314;2022-09-29T14:11:47;14.70;99.90
40676;DHT22;26359;48.750;9.314;2022-09-29T14:14:20;14.70;99.90
40676;DHT22;26359;48.750;9.314;2022-09-29T14:17:15;14.70;99.90
40676;DHT22;26359;48.750;9.314;2022-09-29T14:20:13;14.60;99.90
40676;DHT22;26359;48.750;9.314;2022-09-29T14:28:04;14.50;99.90
40676;DHT22;26359;48.750;9.314;2022-09-29T14:33:11;14.40;99.90
40676;DHT22;26359;48.750;9.314;2022-09-29T14:35:39;14.40;99.90
40676;DHT22;26359;48.750;9.314;2022-09-29T14:38:13;14.40;99.90
40676;DHT22;26359;48.750;9.314;2022-09-29T14:41:38;14.40;99.90
40676;DHT22;26359;48.750;9.314;2022-09-29T14:43:48;14.30;99.90
40676;DHT22;26359;48.750;9.314;2022-09-29T14:46:34;14.30;99.90
40676;DHT22;26359;48.750;9.314;2022-09-29T15:03:34;14.10;99.90
40676;DHT22;26359;48.750;9.314;2022-09-29T15:06:15;14.00;99.90
40676;DHT22;26359;48.750;9.314;2022-09-29T15:08:53;14.00;99.90
40676;DHT22;26359;48.750;9.314;2022-09-29T15:11:43;14.00;99.90
40676;DHT22;26359;48.750;9.314;2022-09-29T15:14:25;14.00;99.90
40676;DHT22;26359;48.750;9.314;2022-09-29T15:17:05;14.00;99.90
40676;DHT22;26359;48.750;9.314;2022-09-29T15:22:41;13.90;99.90
40676;DHT22;26359;48.750;9.314;2022-09-29T15:25:33;13.90;99.90
40676;DHT22;26359;48.750;9.314;2022-09-29T15:28:27;13.90;99.90
40676;DHT22;26359;48.750;9.314;2022-09-29T15:31:00;13.80;99.90
40676;DHT22;26359;48.750;9.314;2022-09-29T15:33:33;13.80;99.90
40676;DHT22;26359;48.750;9.314;2022-09-29T15:38:36;13.70;99.90
40676;DHT22;26359;48.750;9.314;2022-09-29T15:44:13;13.70;99.90
40676;DHT22;26359;48.750;9.314;2022-09-29T15:46:55;13.70;99.90
40676;DHT22;26359;48.750;9.314;2022-09-29T15:49:23;13.70;99.90
40676;DHT22;26359;48.750;9.314;2022-09-29T15:52:14;13.70;99.90
40676;DHT22;26359;48.750;9.314;2022-09-29T15:54:44;13.60;99.90
40676;DHT22;26359;48.750;9.314;2022-09-29T15:57:39;13.60;99.90
40676;DHT22;26359;48.750;9.314;2022-09-29T16:05:30;13.60;99.90
40676;DHT22;26359;48.750;9.314;2022-09-29T16:08:27;13.50;99.90
40676;DHT22;26359;48.750;9.314;2022-09-29T16:13:24;13.40;99.90
40676;DHT22;26359;48.750;9.314;2022-09-29T16:15:55;13.40;99.90
40676;DHT22;26359;48.750;9.314;2022-09-29T16:18:30;13.30;99.90
40676;DHT22;26359;48.750;9.314;2022-09-29T16:21:11;13.30;99.90
40676;DHT22;26359;48.750;9.314;2022-09-29T16:24:20;13.30;99.90
40676;DHT22;26359;48.750;9.314;2022-09-29T16:26:42;13.30;99.90
40676;DHT22;26359;48.750;9.314;2022-09-29T16:31:45;13.20;99.90
40676;DHT22;26359;48.750;9.314;2022-09-29T16:36:56;13.20;99.90
40676;DHT22;26359;48.750;9.314;2022-09-29T16:39:31;13.20;99.90
40676;DHT22;26359;48.750;9.314;2022-09-29T16:42:01;13.10;99.90
40676;DHT22;26359;48.750;9.314;2022-09-29T16:44:34;13.10;99.90
40676;DHT22;26359;48.750;9.314;2022-09-29T16:49:36;13.00;99.90
40676;DHT22;26359;48.750;9.314;2022-09-29T16:52:21;13.00;99.90
40676;DHT22;26359;48.750;9.314;2022-09-29T16:57:50;12.90;99.90
40676;DHT22;26359;48.750;9.314;2022-09-29T17:00:18;12.90;99.90
40676;DHT22;26359;48.750;9.314;2022-09-29T17:02:44;12.80;99.90
40676;DHT22;26359;48.750;9.314;2022-09-29T17:05:09;12.80;99.90
40676;DHT22;26359;48.750;9.314;2022-09-29T17:07:39;12.70;99.90
40676;DHT22;26359;48.750;9.314;2022-09-29T17:10:06;12.70;99.90
40676;DHT22;26359;48.750;9.314;2022-09-29T17:12:39;12.70;99.90
40676;DHT22;26359;48.750;9.314;2022-09-29T17:15:05;12.60;99.90
40676;DHT22;26359;48.750;9.314;2022-09-29T17:17:31;12.60;99.90
40676;DHT22;26359;48.750;9.314;2022-09-29T17:19:58;12.50;99.90
40676;DHT22;26359;48.750;9.314;2022-09-29T17:22:32;12.50;99.90
40676;DHT22;26359;48.750;9.314;2022-09-29T17:24:59;12.50;99.90
40676;DHT22;26359;48.750;9.314;2022-09-29T17:27:26;12.40;99.90
40676;DHT22;26359;48.750;9.314;2022-09-29T17:30:13;12.40;99.90
40676;DHT22;26359;48.750;9.314;2022-09-29T17:32:42;12.40;99.90
40676;DHT22;26359;48.750;9.314;2022-09-29T17:35:15;12.30;99.90
40676;DHT22;26359;48.750;9.314;2022-09-29T17:37:42;12.20;99.90
40676;DHT22;26359;48.750;9.314;2022-09-29T17:43:22;12.20;99.90
40676;DHT22;26359;48.750;9.314;2022-09-29T17:45:54;12.20;99.90
40676;DHT22;26359;48.750;9.314;2022-09-29T17:48:21;12.10;99.90
40676;DHT22;26359;48.750;9.314;2022-09-29T17:50:48;12.10;99.90
40676;DHT22;26359;48.750;9.314;2022-09-29T17:53:14;12.10;99.90
40676;DHT22;26359;48.750;9.314;2022-09-29T17:55:46;12.00;99.90
40676;DHT22;26359;48.750;9.314;2022-09-29T17:58:13;12.00;99.90
40676;DHT22;26359;48.750;9.314;2022-09-29T18:00:50;11.90;99.90
40676;DHT22;26359;48.750;9.314;2022-09-29T18:03:20;11.80;99.90
40676;DHT22;26359;48.750;9.314;2022-09-29T18:05:48;11.80;99.90
40676;DHT22;26359;48.750;9.314;2022-09-29T18:08:24;11.80;99.90
40676;DHT22;26359;48.750;9.314;2022-09-29T18:10:55;11.70;99.90
40676;DHT22;26359;48.750;9.314;2022-09-29T18:13:22;11.70;99.90
40676;DHT22;26359;48.750;9.314;2022-09-29T18:15:49;11.70;99.90
40676;DHT22;26359;48.750;9.314;2022-09-29T18:18:18;11.70;99.90
40676;DHT22;26359;48.750;9.314;2022-09-29T18:20:44;11.70;99.90
40676;DHT22;26359;48.750;9.314;2022-09-29T18:23:14;11.70;99.90
40676;DHT22;26359;48.750;9.314;2022-09-29T18:25:41;11.70;99.90
40676;DHT22;26359;48.750;9.314;2022-09-29T18:28:11;11.70;99.90
40676;DHT22;26359;48.750;9.314;2022-09-29T18:30:37;11.70;99.90
40676;DHT22;26359;48.750;9.314;2022-09-29T18:33:11;11.60;99.90
40676;DHT22;26359;48.750;9.314;2022-09-29T18:35:40;11.60;99.90
40676;DHT22;26359;48.750;9.314;2022-09-29T18:38:07;11.50;99.90
40676;DHT22;26359;48.750;9.314;2022-09-29T18:40:36;11.50;99.90
40676;DHT22;26359;48.750;9.314;2022-09-29T18:43:06;11.50;99.90
40676;DHT22;26359;48.750;9.314;2022-09-29T18:45:35;11.50;99.90
40676;DHT22;26359;48.750;9.314;2022-09-29T18:48:03;11.50;99.90
40676;DHT22;26359;48.750;9.314;2022-09-29T18:50:34;11.50;99.90
40676;DHT22;26359;48.750;9.314;2022-09-29T18:53:00;11.40;99.90
40676;DHT22;26359;48.750;9.314;2022-09-29T18:55:28;11.40;99.90
40676;DHT22;26359;48.750;9.314;2022-09-29T18:57:56;11.40;99.90
40676;DHT22;26359;48.750;9.314;2022-09-29T19:00:31;11.40;99.90
40676;DHT22;26359;48.750;9.314;2022-09-29T19:02:58;11.30;99.90
40676;DHT22;26359;48.750;9.314;2022-09-29T19:05:26;11.30;99.90
40676;DHT22;26359;48.750;9.314;2022-09-29T19:08:05;11.30;99.90
40676;DHT22;26359;48.750;9.314;2022-09-29T19:10:32;11.30;99.90